sensor_id;sensor_type;location;lat;lon;timestamp;pressure;altitude;pressure_sealevel;temperature;humidity
2268;BME280;11052;43.338;25.502;2023-02-01T00:00:00;100781.81;;;1.97;100.00
2268;BME280;11052;43.338;25.502;2023-02-01T00:02:27;100786.16;;;2.05;100.00
2268;BME280;11052;43.338;25.502;2023-02-01T00:04:54;100783.53;;;2.00;100.00
2268;BME280;11052;43.338;25.502;2023-02-01T00:07:21;100781.81;;;1.99;100.00
2268;BME280;11052;43.338;25.502;2023-02-01T00:09:48;100776.78;;;2.04;100.00
2268;BME280;11052;43.338;25.502;2023-02-01T00:12:17;100787.69;;;1.92;100.00
2268;BME280;11052;43.338;25.502;2023-02-01T00:14:44;100792.84;;;1.95;100.00
2268;BME280;11052;43.338;25.502;2023-02-01T00:17:13;100789.47;;;1.96;100.00
2268;BME280;11052;43.338;25.502;2023-02-01T00:19:41;100786.97;;;2.01;100.00
2268;BME280;11052;43.338;25.502;2023-02-01T00:22:08;100798.06;;;2.04;100.00
2268;BME280;11052;43.338;25.502;2023-02-01T00:24:35;100790.44;;;2.06;100.00
2268;BME280;11052;43.338;25.502;2023-02-01T00:27:02;100785.22;;;1.98;100.00
2268;BME280;11052;43.338;25.502;2023-02-01T00:29:30;100784.50;;;2.08;100.00
2268;BME280;11052;43.338;25.502;2023-02-01T00:31:57;100791.28;;;2.05;100.00
2268;BME280;11052;43.338;25.502;2023-02-01T00:34:25;100785.28;;;2.03;100.00
2268;BME280;11052;43.338;25.502;2023-02-01T00:36:52;100781.13;;;2.11;100.00
2268;BME280;11052;43.338;25.502;2023-02-01T00:39:19;100784.50;;;2.10;100.00
2268;BME280;11052;43.338;25.502;2023-02-01T00:41:46;100782.72;;;2.03;100.00
2268;BME280;11052;43.338;25.502;2023-02-01T00:44:13;100780.13;;;2.00;100.00
2268;BME280;11052;43.338;25.502;2023-02-01T00:46:41;100775.00;;;2.00;100.00
2268;BME280;11052;43.338;25.502;2023-02-01T00:49:09;100779.19;;;1.93;100.00
2268;BME280;11052;43.338;25.502;2023-02-01T00:51:36;100772.47;;;2.01;100.00
2268;BME280;11052;43.338;25.502;2023-02-01T00:54:03;100769.81;;;1.93;100.00
2268;BME280;11052;43.338;25.502;2023-02-01T00:56:30;100767.22;;;1.90;100.00
2268;BME280;11052;43.338;25.502;2023-02-01T00:58:57;100768.28;;;2.08;100.00
2268;BME280;11052;43.338;25.502;2023-02-01T01:01:26;100763.06;;;1.97;100.00
2268;BME280;11052;43.338;25.502;2023-02-01T01:03:56;100774.97;;;1.96;100.00
2268;BME280;11052;43.338;25.502;2023-02-01T01:06:25;100769.06;;;2.01;100.00
2268;BME280;11052;43.338;25.502;2023-02-01T01:08:53;100777.53;;;1.96;100.00
2268;BME280;11052;43.338;25.502;2023-02-01T01:11:23;100772.38;;;1.92;100.00
2268;BME280;11052;43.338;25.502;2023-02-01T01:13:51;100774.94;;;1.95;100.00
2268;BME280;11052;43.338;25.502;2023-02-01T01:16:20;100769.88;;;1.96;100.00
2268;BME280;11052;43.338;25.502;2023-02-01T01:18:48;100774.97;;;1.96;100.00
2268;BME280;11052;43.338;25.502;2023-02-01T01:21:17;100773.31;;;2.00;100.00
2268;BME280;11052;43.338;25.502;2023-02-01T01:23:45;100762.22;;;1.98;100.00
2268;BME280;11052;43.338;25.502;2023-02-01T01:26:14;100776.50;;;1.84;100.00
2268;BME280;11052;43.338;25.502;2023-02-01T01:28:42;100768.94;;;1.90;100.00
2268;BME280;11052;43.338;25.502;2023-02-01T01:31:10;100767.22;;;1.89;100.00
2268;BME280;11052;43.338;25.502;2023-02-01T01:33:38;100770.72;;;1.97;100.00
2268;BME280;11052;43.338;25.502;2023-02-01T01:36:05;100760.50;;;1.97;100.00
2268;BME280;11052;43.338;25.502;2023-02-01T01:38:35;100773.28;;;1.97;100.00
2268;BME280;11052;43.338;25.502;2023-02-01T01:41:02;100769.91;;;2.01;100.00
2268;BME280;11052;43.338;25.502;2023-02-01T01:43:47;100769.03;;;1.97;100.00
2268;BME280;11052;43.338;25.502;2023-02-01T01:46:16;100774.13;;;1.96;100.00
2268;BME280;11052;43.338;25.502;2023-02-01T01:48:46;100768.94;;;1.90;100.00
2268;BME280;11052;43.338;25.502;2023-02-01T01:51:17;100773.09;;;1.83;100.00
2268;BME280;11052;43.338;25.502;2023-02-01T01:53:58;100764.50;;;1.78;100.00
2268;BME280;11052;43.338;25.502;2023-02-01T01:56:28;100769.59;;;1.75;100.00
2268;BME280;11052;43.338;25.502;2023-02-01T01:58:57;100762.78;;;1.73;100.00
2268;BME280;11052;43.338;25.502;2023-02-01T02:01:25;100766.97;;;1.68;100.00
2268;BME280;11052;43.338;25.502;2023-02-01T02:03:53;100765.16;;;1.60;100.00
2268;BME280;11052;43.338;25.502;2023-02-01T02:06:30;100763.41;;;1.56;100.00
2268;BME280;11052;43.338;25.502;2023-02-01T02:09:01;100762.63;;;1.62;100.00
2268;BME280;11052;43.338;25.502;2023-02-01T02:11:29;100762.56;;;1.57;100.00
2268;BME280;11052;43.338;25.502;2023-02-01T02:13:57;100766.91;;;1.64;100.00
2268;BME280;11052;43.338;25.502;2023-02-01T02:16:40;100769.44;;;1.61;100.00
2268;BME280;11052;43.338;25.502;2023-02-01T02:25:42;100772.03;;;1.64;100.00
2268;BME280;11052;43.338;25.502;2023-02-01T02:28:30;100772.78;;;1.57;100.00
2268;BME280;11052;43.338;25.502;2023-02-01T02:31:18;100777.09;;;1.61;100.00
2268;BME280;11052;43.338;25.502;2023-02-01T02:34:05;100767.72;;;1.62;100.00
2268;BME280;11052;43.338;25.502;2023-02-01T02:36:42;100774.59;;;1.66;100.00
2268;BME280;11052;43.338;25.502;2023-02-01T02:39:21;100774.53;;;1.60;100.00
2268;BME280;11052;43.338;25.502;2023-02-01T02:41:58;100768.41;;;1.50;100.00
2268;BME280;11052;43.338;25.502;2023-02-01T02:44:48;100779.59;;;1.58;100.00
2268;BME280;11052;43.338;25.502;2023-02-01T02:47:39;100775.25;;;1.51;100.00
2268;BME280;11052;43.338;25.502;2023-02-01T02:50:15;100775.16;;;1.45;100.00
2268;BME280;11052;43.338;25.502;2023-02-01T02:53:09;100773.56;;;1.53;100.00
2268;BME280;11052;43.338;25.502;2023-02-01T02:55:56;100778.56;;;1.46;100.00
2268;BME280;11052;43.338;25.502;2023-02-01T02:58:42;100777.72;;;1.45;100.00
2268;BME280;11052;43.338;25.502;2023-02-01T03:01:28;100777.66;;;1.42;100.00
2268;BME280;11052;43.338;25.502;2023-02-01T03:04:14;100780.19;;;1.41;100.00
2268;BME280;11052;43.338;25.502;2023-02-01T03:06:44;100781.81;;;1.34;100.00
2268;BME280;11052;43.338;25.502;2023-02-01T03:09:19;100784.44;;;1.39;100.00
2268;BME280;11052;43.338;25.502;2023-02-01T03:11:49;100786.09;;;1.37;100.00
2268;BME280;11052;43.338;25.502;2023-02-01T03:14:38;100791.38;;;1.47;100.00
2268;BME280;11052;43.338;25.502;2023-02-01T03:17:11;100790.34;;;1.36;100.00
2268;BME280;11052;43.338;25.502;2023-02-01T03:19:43;100802.28;;;1.37;100.00
2268;BME280;11052;43.338;25.502;2023-02-01T03:22:18;100800.56;;;1.36;100.00
2268;BME280;11052;43.338;25.502;2023-02-01T03:24:49;100798.13;;;1.44;100.00
2268;BME280;11052;43.338;25.502;2023-02-01T03:27:21;100801.41;;;1.37;100.00
2268;BME280;11052;43.338;25.502;2023-02-01T03:29:56;100811.63;;;1.35;100.00
2268;BME280;11052;43.338;25.502;2023-02-01T03:32:25;100803.41;;;1.56;100.00
2268;BME280;11052;43.338;25.502;2023-02-01T03:34:52;100817.78;;;1.49;100.00
2268;BME280;11052;43.338;25.502;2023-02-01T03:37:24;100811.84;;;1.50;100.00
2268;BME280;11052;43.338;25.502;2023-02-01T03:39:56;100819.41;;;1.44;100.00
2268;BME280;11052;43.338;25.502;2023-02-01T03:42:30;100809.19;;;1.44;100.00
2268;BME280;11052;43.338;25.502;2023-02-01T03:45:05;100816.13;;;1.51;100.00
2268;BME280;11052;43.338;25.502;2023-02-01T03:47:37;100823.84;;;1.56;100.00
2268;BME280;11052;43.338;25.502;2023-02-01T03:50:08;100817.88;;;1.55;100.00
2268;BME280;11052;43.338;25.502;2023-02-01T03:52:40;100821.28;;;1.54;100.00
2268;BME280;11052;43.338;25.502;2023-02-01T03:55:09;100818.72;;;1.54;100.00
2268;BME280;11052;43.338;25.502;2023-02-01T03:57:41;100817.09;;;1.59;100.00
2268;BME280;11052;43.338;25.502;2023-02-01T04:00:16;100813.88;;;1.73;100.00
2268;BME280;11052;43.338;25.502;2023-02-01T04:02:44;100816.31;;;1.63;100.00
2268;BME280;11052;43.338;25.502;2023-02-01T04:05:11;100809.44;;;1.59;100.00
2268;BME280;11052;43.338;25.502;2023-02-01T04:07:40;100811.22;;;1.67;100.00
2268;BME280;11052;43.338;25.502;2023-02-01T04:10:09;100812.97;;;1.69;100.00
2268;BME280;11052;43.338;25.502;2023-02-01T04:12:36;100818.13;;;1.72;100.00
2268;BME280;11052;43.338;25.502;2023-02-01T04:15:04;100813.88;;;1.74;100.00
2268;BME280;11052;43.338;25.502;2023-02-01T04:17:31;100815.56;;;1.72;100.00
2268;BME280;11052;43.338;25.502;2023-02-01T04:19:58;100812.97;;;1.69;100.00
2268;BME280;11052;43.338;25.502;2023-02-01T04:22:25;100813.78;;;1.67;100.00
2268;BME280;11052;43.338;25.502;2023-02-01T04:24:55;100822.25;;;1.62;100.00
2268;BME280;11052;43.338;25.502;2023-02-01T04:27:22;100822.41;;;1.73;100.00
2268;BME280;11052;43.338;25.502;2023-02-01T04:29:50;100822.28;;;1.66;100.00
2268;BME280;11052;43.338;25.502;2023-02-01T04:32:17;100816.38;;;1.70;100.00
2268;BME280;11052;43.338;25.502;2023-02-01T04:34:45;100815.50;;;1.68;100.00
2268;BME280;11052;43.338;25.502;2023-02-01T04:37:12;100817.91;;;1.57;100.00
2268;BME280;11052;43.338;25.502;2023-02-01T04:39:39;100816.13;;;1.53;100.00
2268;BME280;11052;43.338;25.502;2023-02-01T04:42:08;100807.00;;;1.69;100.00
2268;BME280;11052;43.338;25.502;2023-02-01T04:44:35;100817.06;;;1.58;100.00
2268;BME280;11052;43.338;25.502;2023-02-01T04:47:05;100818.00;;;1.63;100.00
2268;BME280;11052;43.338;25.502;2023-02-01T04:49:32;100821.38;;;1.62;100.00
2268;BME280;11052;43.338;25.502;2023-02-01T04:51:59;100816.06;;;1.48;100.00
2268;BME280;11052;43.338;25.502;2023-02-01T04:54:26;100831.41;;;1.48;100.00
2268;BME280;11052;43.338;25.502;2023-02-01T04:56:53;100824.63;;;1.50;100.00
2268;BME280;11052;43.338;25.502;2023-02-01T04:59:21;100817.75;;;1.46;100.00
2268;BME280;11052;43.338;25.502;2023-02-01T05:01:49;100816.16;;;1.54;100.00
2268;BME280;11052;43.338;25.502;2023-02-01T05:04:16;100813.44;;;1.44;100.00
2268;BME280;11052;43.338;25.502;2023-02-01T05:06:44;100817.59;;;1.37;100.00
2268;BME280;11052;43.338;25.502;2023-02-01T05:09:11;100810.72;;;1.31;100.00
2268;BME280;11052;43.338;25.502;2023-02-01T05:11:38;100815.91;;;1.38;100.00
2268;BME280;11052;43.338;25.502;2023-02-01T05:14:29;100813.34;;;1.38;100.00
2268;BME280;11052;43.338;25.502;2023-02-01T05:16:56;100812.41;;;1.33;100.00
2268;BME280;11052;43.338;25.502;2023-02-01T05:19:23;100806.47;;;1.32;100.00
2268;BME280;11052;43.338;25.502;2023-02-01T05:21:50;100817.47;;;1.28;100.00
2268;BME280;11052;43.338;25.502;2023-02-01T05:24:17;100810.63;;;1.27;100.00
2268;BME280;11052;43.338;25.502;2023-02-01T05:26:46;100815.88;;;1.36;100.00
2268;BME280;11052;43.338;25.502;2023-02-01T05:29:15;100805.53;;;1.27;100.00
2268;BME280;11052;43.338;25.502;2023-02-01T05:31:44;100814.91;;;1.28;100.00
2268;BME280;11052;43.338;25.502;2023-02-01T05:34:12;100815.75;;;1.27;100.00
2268;BME280;11052;43.338;25.502;2023-02-01T05:36:39;100814.03;;;1.27;100.00
2268;BME280;11052;43.338;25.502;2023-02-01T05:39:07;100821.78;;;1.32;100.00
2268;BME280;11052;43.338;25.502;2023-02-01T05:41:35;100819.28;;;1.35;100.00
2268;BME280;11052;43.338;25.502;2023-02-01T05:44:03;100824.19;;;1.23;100.00
2268;BME280;11052;43.338;25.502;2023-02-01T05:46:30;100823.31;;;1.22;100.00
2268;BME280;11052;43.338;25.502;2023-02-01T05:48:59;100816.66;;;1.32;100.00
2268;BME280;11052;43.338;25.502;2023-02-01T05:51:26;100819.06;;;1.21;100.00
2268;BME280;11052;43.338;25.502;2023-02-01T05:53:53;100824.31;;;1.30;100.00
2268;BME280;11052;43.338;25.502;2023-02-01T05:56:20;100831.13;;;1.31;100.00
2268;BME280;11052;43.338;25.502;2023-02-01T05:58:47;100834.69;;;1.41;100.00
2268;BME280;11052;43.338;25.502;2023-02-01T06:01:15;100837.38;;;1.49;100.00
2268;BME280;11052;43.338;25.502;2023-02-01T06:03:42;100835.91;;;1.64;100.00
2268;BME280;11052;43.338;25.502;2023-02-01T06:06:10;100846.06;;;1.60;100.00
2268;BME280;11052;43.338;25.502;2023-02-01T06:08:37;100840.28;;;1.72;100.00
2268;BME280;11052;43.338;25.502;2023-02-01T06:11:05;100839.75;;;1.98;100.00
2268;BME280;11052;43.338;25.502;2023-02-01T06:13:33;100837.50;;;2.21;100.00
2268;BME280;11052;43.338;25.502;2023-02-01T06:16:01;100847.25;;;2.51;100.00
2268;BME280;11052;43.338;25.502;2023-02-01T06:18:30;100848.34;;;2.76;100.00
2268;BME280;11052;43.338;25.502;2023-02-01T06:20:59;100848.41;;;2.81;100.00
2268;BME280;11052;43.338;25.502;2023-02-01T06:23:28;100850.31;;;3.02;100.00
2268;BME280;11052;43.338;25.502;2023-02-01T06:25:59;100851.25;;;3.11;100.00
2268;BME280;11052;43.338;25.502;2023-02-01T06:28:26;100847.94;;;3.23;100.00
2268;BME280;11052;43.338;25.502;2023-02-01T06:30:54;100840.41;;;3.41;100.00
2268;BME280;11052;43.338;25.502;2023-02-01T06:33:21;100835.41;;;3.62;100.00
2268;BME280;11052;43.338;25.502;2023-02-01T06:35:48;100835.47;;;3.72;100.00
2268;BME280;11052;43.338;25.502;2023-02-01T06:38:15;100843.25;;;3.84;100.00
2268;BME280;11052;43.338;25.502;2023-02-01T06:40:44;100839.03;;;3.95;100.00
2268;BME280;11052;43.338;25.502;2023-02-01T06:43:11;100844.13;;;3.87;100.00
2268;BME280;11052;43.338;25.502;2023-02-01T06:45:38;100845.91;;;4.02;100.00
2268;BME280;11052;43.338;25.502;2023-02-01T06:48:07;100846.81;;;4.12;100.00
2268;BME280;11052;43.338;25.502;2023-02-01T06:50:34;100850.22;;;4.09;100.00
2268;BME280;11052;43.338;25.502;2023-02-01T06:53:01;100859.72;;;4.25;100.00
2268;BME280;11052;43.338;25.502;2023-02-01T06:55:28;100855.47;;;4.37;100.00
2268;BME280;11052;43.338;25.502;2023-02-01T06:57:57;100856.38;;;4.54;100.00
2268;BME280;11052;43.338;25.502;2023-02-01T07:00:24;100860.69;;;4.61;100.00
2268;BME280;11052;43.338;25.502;2023-02-01T07:02:51;100866.72;;;4.69;100.00
2268;BME280;11052;43.338;25.502;2023-02-01T07:05:18;100871.91;;;4.89;100.00
2268;BME280;11052;43.338;25.502;2023-02-01T07:07:45;100872.78;;;4.94;100.00
2268;BME280;11052;43.338;25.502;2023-02-01T07:10:12;100872.78;;;5.03;100.00
2268;BME280;11052;43.338;25.502;2023-02-01T07:12:40;100876.22;;;5.01;100.00
2268;BME280;11052;43.338;25.502;2023-02-01T07:15:09;100877.91;;;5.21;100.00
2268;BME280;11052;43.338;25.502;2023-02-01T07:17:36;100883.09;;;5.17;100.00
2268;BME280;11052;43.338;25.502;2023-02-01T07:20:04;100877.06;;;5.27;100.00
2268;BME280;11052;43.338;25.502;2023-02-01T07:22:31;100869.38;;;5.39;100.00
2268;BME280;11052;43.338;25.502;2023-02-01T07:24:58;100870.22;;;5.44;100.00
2268;BME280;11052;43.338;25.502;2023-02-01T07:27:25;100871.09;;;5.45;100.00
2268;BME280;11052;43.338;25.502;2023-02-01T07:29:52;100865.09;;;5.43;100.00
2268;BME280;11052;43.338;25.502;2023-02-01T07:32:22;100877.09;;;5.59;100.00
2268;BME280;11052;43.338;25.502;2023-02-01T07:34:49;100865.06;;;5.69;100.00
2268;BME280;11052;43.338;25.502;2023-02-01T07:37:19;100860.78;;;5.54;100.00
2268;BME280;11052;43.338;25.502;2023-02-01T07:39:46;100864.22;;;5.70;100.00
2268;BME280;11052;43.338;25.502;2023-02-01T07:42:13;100871.94;;;5.76;100.00
2268;BME280;11052;43.338;25.502;2023-02-01T07:44:40;100865.94;;;5.75;100.00
2268;BME280;11052;43.338;25.502;2023-02-01T07:47:08;100866.78;;;5.68;100.00
2268;BME280;11052;43.338;25.502;2023-02-01T07:49:36;100853.91;;;5.79;100.00
2268;BME280;11052;43.338;25.502;2023-02-01T07:52:03;100852.19;;;5.81;100.00
2268;BME280;11052;43.338;25.502;2023-02-01T07:54:30;100853.06;;;5.89;100.00
2268;BME280;11052;43.338;25.502;2023-02-01T07:56:57;100850.47;;;6.00;100.00
2268;BME280;11052;43.338;25.502;2023-02-01T07:59:24;100851.25;;;6.23;100.00
2268;BME280;11052;43.338;25.502;2023-02-01T08:01:52;100852.09;;;6.27;100.00
2268;BME280;11052;43.338;25.502;2023-02-01T08:04:18;100851.25;;;6.21;100.00
2268;BME280;11052;43.338;25.502;2023-02-01T08:06:46;100851.25;;;6.14;100.00
2268;BME280;11052;43.338;25.502;2023-02-01T08:09:14;100854.63;;;6.33;100.00
2268;BME280;11052;43.338;25.502;2023-02-01T08:11:41;100858.94;;;6.31;100.00
2268;BME280;11052;43.338;25.502;2023-02-01T08:14:08;100860.59;;;6.44;100.00
2268;BME280;11052;43.338;25.502;2023-02-01T08:16:35;100861.53;;;6.18;100.00
2268;BME280;11052;43.338;25.502;2023-02-01T08:19:03;100865.81;;;6.29;100.00
2268;BME280;11052;43.338;25.502;2023-02-01T08:21:30;100860.59;;;6.47;100.00
2268;BME280;11052;43.338;25.502;2023-02-01T08:24:05;100867.47;;;6.45;100.00
2268;BME280;11052;43.338;25.502;2023-02-01T08:26:32;100865.66;;;6.64;100.00
2268;BME280;11052;43.338;25.502;2023-02-01T08:29:01;100868.19;;;6.71;100.00
2268;BME280;11052;43.338;25.502;2023-02-01T08:31:29;100870.75;;;6.76;100.00
2268;BME280;11052;43.338;25.502;2023-02-01T08:33:58;100866.41;;;6.87;100.00
2268;BME280;11052;43.338;25.502;2023-02-01T08:36:27;100867.16;;;7.01;100.00
2268;BME280;11052;43.338;25.502;2023-02-01T08:38:55;100880.16;;;6.84;100.00
2268;BME280;11052;43.338;25.502;2023-02-01T08:41:26;100883.56;;;6.93;100.00
2268;BME280;11052;43.338;25.502;2023-02-01T08:43:53;100879.19;;;7.01;100.00
2268;BME280;11052;43.338;25.502;2023-02-01T08:46:21;100879.88;;;7.27;100.00
2268;BME280;11052;43.338;25.502;2023-02-01T08:48:49;100881.53;;;7.33;100.00
2268;BME280;11052;43.338;25.502;2023-02-01T08:51:18;100887.59;;;7.26;100.00
2268;BME280;11052;43.338;25.502;2023-02-01T08:53:46;100886.03;;;7.05;100.00
2268;BME280;11052;43.338;25.502;2023-02-01T08:56:15;100886.03;;;7.03;100.00
2268;BME280;11052;43.338;25.502;2023-02-01T08:58:44;100898.78;;;7.26;100.00
2268;BME280;11052;43.338;25.502;2023-02-01T09:01:14;100883.31;;;7.23;100.00
2268;BME280;11052;43.338;25.502;2023-02-01T09:03:42;100884.31;;;7.02;100.00
2268;BME280;11052;43.338;25.502;2023-02-01T09:06:11;100873.09;;;7.11;100.00
2268;BME280;11052;43.338;25.502;2023-02-01T09:08:39;100872.25;;;7.10;100.00
2268;BME280;11052;43.338;25.502;2023-02-01T09:11:10;100875.59;;;7.24;100.00
2268;BME280;11052;43.338;25.502;2023-02-01T09:13:38;100871.19;;;7.39;100.00
2268;BME280;11052;43.338;25.502;2023-02-01T09:16:06;100879.69;;;7.48;100.00
2268;BME280;11052;43.338;25.502;2023-02-01T09:18:34;100869.44;;;7.42;100.00
2268;BME280;11052;43.338;25.502;2023-02-01T09:21:04;100873.78;;;7.36;100.00
2268;BME280;11052;43.338;25.502;2023-02-01T09:23:31;100879.72;;;7.47;100.00
2268;BME280;11052;43.338;25.502;2023-02-01T09:25:59;100862.22;;;7.79;100.00
2268;BME280;11052;43.338;25.502;2023-02-01T09:28:26;100864.69;;;7.87;100.00
2268;BME280;11052;43.338;25.502;2023-02-01T09:30:55;100866.69;;;7.62;100.00
2268;BME280;11052;43.338;25.502;2023-02-01T09:33:25;100861.56;;;7.59;100.00
2268;BME280;11052;43.338;25.502;2023-02-01T09:35:56;100862.41;;;7.60;100.00
2268;BME280;11052;43.338;25.502;2023-02-01T09:38:23;100853.06;;;7.48;100.00
2268;BME280;11052;43.338;25.502;2023-02-01T09:40:53;100845.25;;;7.54;100.00
2268;BME280;11052;43.338;25.502;2023-02-01T09:43:37;100842.38;;;7.84;100.00
2268;BME280;11052;43.338;25.502;2023-02-01T09:46:20;100836.19;;;7.99;100.00
2268;BME280;11052;43.338;25.502;2023-02-01T09:49:00;100824.94;;;8.05;100.00
2268;BME280;11052;43.338;25.502;2023-02-01T09:51:35;100825.53;;;8.27;100.00
2268;BME280;11052;43.338;25.502;2023-02-01T09:54:06;100819.69;;;8.12;100.00
2268;BME280;11052;43.338;25.502;2023-02-01T09:56:41;100815.47;;;8.04;100.00
2268;BME280;11052;43.338;25.502;2023-02-01T09:59:19;100811.34;;;7.87;100.00
2268;BME280;11052;43.338;25.502;2023-02-01T10:01:49;100805.47;;;7.78;100.00
2268;BME280;11052;43.338;25.502;2023-02-01T10:04:17;100800.06;;;7.96;100.00
2268;BME280;11052;43.338;25.502;2023-02-01T10:06:57;100792.56;;;7.78;100.00
2268;BME280;11052;43.338;25.502;2023-02-01T10:09:49;100782.50;;;7.52;100.00
2268;BME280;11052;43.338;25.502;2023-02-01T10:12:36;100781.09;;;7.17;100.00
2268;BME280;11052;43.338;25.502;2023-02-01T10:15:19;100775.13;;;7.12;100.00
2268;BME280;11052;43.338;25.502;2023-02-01T10:20:56;100770.22;;;6.86;100.00
2268;BME280;11052;43.338;25.502;2023-02-01T10:23:49;100763.34;;;6.82;100.00
2268;BME280;11052;43.338;25.502;2023-02-01T10:26:19;100755.66;;;6.81;100.00
2268;BME280;11052;43.338;25.502;2023-02-01T10:28:49;100758.19;;;6.84;100.00
2268;BME280;11052;43.338;25.502;2023-02-01T10:31:18;100754.75;;;6.86;100.00
2268;BME280;11052;43.338;25.502;2023-02-01T10:33:47;100737.41;;;7.01;100.00
2268;BME280;11052;43.338;25.502;2023-02-01T10:36:22;100726.25;;;6.99;100.00
2268;BME280;11052;43.338;25.502;2023-02-01T10:38:50;100722.72;;;7.12;100.00
2268;BME280;11052;43.338;25.502;2023-02-01T10:41:19;100721.69;;;7.28;100.00
2268;BME280;11052;43.338;25.502;2023-02-01T10:43:50;100709.63;;;7.33;100.00
2268;BME280;11052;43.338;25.502;2023-02-01T10:46:20;100719.22;;;7.19;100.00
2268;BME280;11052;43.338;25.502;2023-02-01T10:48:48;100712.25;;;7.29;100.00
2268;BME280;11052;43.338;25.502;2023-02-01T10:51:22;100711.47;;;7.19;100.00
2268;BME280;11052;43.338;25.502;2023-02-01T10:53:54;100714.81;;;7.29;100.00
2268;BME280;11052;43.338;25.502;2023-02-01T10:56:24;100710.44;;;7.37;100.00
2268;BME280;11052;43.338;25.502;2023-02-01T10:59:00;100713.06;;;7.34;100.00
2268;BME280;11052;43.338;25.502;2023-02-01T11:01:30;100710.38;;;7.43;100.00
2268;BME280;11052;43.338;25.502;2023-02-01T11:03:59;100705.16;;;7.47;100.00
2268;BME280;11052;43.338;25.502;2023-02-01T11:06:29;100699.06;;;7.54;100.00
2268;BME280;11052;43.338;25.502;2023-02-01T11:08:59;100692.97;;;7.62;100.00
2268;BME280;11052;43.338;25.502;2023-02-01T11:11:27;100686.16;;;7.56;100.00
2268;BME280;11052;43.338;25.502;2023-02-01T11:13:56;100686.09;;;7.62;100.00
2268;BME280;11052;43.338;25.502;2023-02-01T11:16:30;100680.09;;;7.59;100.00
2268;BME280;11052;43.338;25.502;2023-02-01T11:18:59;100677.41;;;7.68;100.00
2268;BME280;11052;43.338;25.502;2023-02-01T11:21:28;100678.06;;;7.82;100.00
2268;BME280;11052;43.338;25.502;2023-02-01T11:23:59;100671.94;;;7.90;100.00
2268;BME280;11052;43.338;25.502;2023-02-01T11:26:27;100671.88;;;7.95;100.00
2268;BME280;11052;43.338;25.502;2023-02-01T11:28:58;100665.09;;;7.88;100.00
2268;BME280;11052;43.338;25.502;2023-02-01T11:31:27;100640.97;;;7.90;100.00
2268;BME280;11052;43.338;25.502;2023-02-01T11:33:58;100643.31;;;8.07;100.00
2268;BME280;11052;43.338;25.502;2023-02-01T11:36:30;100640.88;;;7.97;100.00
2268;BME280;11052;43.338;25.502;2023-02-01T11:39:15;100639.91;;;8.05;100.00
2268;BME280;11052;43.338;25.502;2023-02-01T11:41:56;100642.25;;;8.20;100.00
2268;BME280;11052;43.338;25.502;2023-02-01T11:44:31;100642.09;;;8.31;100.00
2268;BME280;11052;43.338;25.502;2023-02-01T11:47:18;100633.53;;;8.29;100.00
2268;BME280;11052;43.338;25.502;2023-02-01T11:49:46;100636.97;;;8.30;100.00
2268;BME280;11052;43.338;25.502;2023-02-01T11:52:21;100628.28;;;8.37;100.00
2268;BME280;11052;43.338;25.502;2023-02-01T11:55:01;100622.53;;;8.70;100.00
2268;BME280;11052;43.338;25.502;2023-02-01T11:57:42;100629.84;;;8.95;100.00
2268;BME280;11052;43.338;25.502;2023-02-01T12:00:25;100617.59;;;9.06;100.00
2268;BME280;11052;43.338;25.502;2023-02-01T12:03:18;100625.34;;;9.06;100.00
2268;BME280;11052;43.338;25.502;2023-02-01T12:05:55;100619.84;;;9.23;100.00
2268;BME280;11052;43.338;25.502;2023-02-01T12:08:56;100624.34;;;9.13;100.00
2268;BME280;11052;43.338;25.502;2023-02-01T12:11:43;100611.63;;;9.02;100.00
2268;BME280;11052;43.338;25.502;2023-02-01T12:17:32;100618.19;;;9.20;100.00
2268;BME280;11052;43.338;25.502;2023-02-01T12:20:17;100619.16;;;9.14;100.00
2268;BME280;11052;43.338;25.502;2023-02-01T12:22:56;100620.06;;;9.12;100.00
2268;BME280;11052;43.338;25.502;2023-02-01T12:25:39;100620.94;;;9.11;100.00
2268;BME280;11052;43.338;25.502;2023-02-01T12:28:27;100613.38;;;9.00;100.00
2268;BME280;11052;43.338;25.502;2023-02-01T12:31:16;100611.16;;;8.80;100.00
2268;BME280;11052;43.338;25.502;2023-02-01T12:34:03;100602.72;;;8.69;100.00
2268;BME280;11052;43.338;25.502;2023-02-01T12:36:40;100610.81;;;8.51;100.00
2268;BME280;11052;43.338;25.502;2023-02-01T12:39:18;100608.53;;;8.33;100.00
2268;BME280;11052;43.338;25.502;2023-02-01T12:41:55;100611.13;;;8.30;100.00
2268;BME280;11052;43.338;25.502;2023-02-01T12:44:35;100613.13;;;8.12;100.00
2268;BME280;11052;43.338;25.502;2023-02-01T12:47:09;100613.84;;;8.20;100.00
2268;BME280;11052;43.338;25.502;2023-02-01T12:49:46;100616.25;;;8.34;100.00
2268;BME280;11052;43.338;25.502;2023-02-01T12:52:18;100615.38;;;8.37;100.00
2268;BME280;11052;43.338;25.502;2023-02-01T12:54:49;100613.56;;;8.42;100.00
2268;BME280;11052;43.338;25.502;2023-02-01T12:57:23;100603.25;;;8.40;100.00
2268;BME280;11052;43.338;25.502;2023-02-01T12:59:56;100606.38;;;8.59;100.00
2268;BME280;11052;43.338;25.502;2023-02-01T13:02:33;100602.13;;;8.57;100.00
2268;BME280;11052;43.338;25.502;2023-02-01T13:05:13;100598.75;;;8.51;100.00
2268;BME280;11052;43.338;25.502;2023-02-01T13:07:47;100595.84;;;8.70;100.00
2268;BME280;11052;43.338;25.502;2023-02-01T13:10:19;100604.69;;;8.58;100.00
2268;BME280;11052;43.338;25.502;2023-02-01T13:12:56;100583.16;;;8.58;100.00
2268;BME280;11052;43.338;25.502;2023-02-01T13:15:28;100580.53;;;8.59;100.00
2268;BME280;11052;43.338;25.502;2023-02-01T13:18:05;100589.53;;;8.37;100.00
2268;BME280;11052;43.338;25.502;2023-02-01T13:20:37;100577.50;;;8.36;100.00
2268;BME280;11052;43.338;25.502;2023-02-01T13:23:14;100584.44;;;8.31;100.00